Time;durP1;ratioP1;P1;durP2;ratioP2;P2;SDS_P1;SDS_P2;PMS_P1;PMS_P2;Temp;Humidity;BMP_temperature;BMP_pressure;BME280_temperature;BME280_humidity;BME280_pressure;Samples;Min_cycle;Max_cycle;Signal;HPM_P1;HPM_P2
2022/06/14 00:04:20;;;;;;;;;;;;;;;12.74;50.19434;102513;;;;-81
2022/06/14 00:09:18;;;;;;;;;;;;;;;12.67;50.35449;102507;;;;-81
2022/06/14 00:14:19;;;;;;;;;;;;;;;12.63;50.38281;102506.6;;;;-84
2022/06/14 00:19:18;;;;;;;;;;;;;;;12.56;50.39648;102509.4;;;;-82
2022/06/14 00:23:49;;;;;;;3.5;1.3;;;;;;;;;;;;;-82
2022/06/14 00:24:18;;;;;;;;;;;;;;;12.52;50.57227;102512.8;;;;-81
2022/06/14 00:29:18;;;;;;;;;;;;;;;12.47;50.48828;102514.1;;;;-81
2022/06/14 00:34:20;;;;;;;;;;;;;;;12.43;50.69727;102511.4;;;;-79
2022/06/14 00:39:19;;;;;;;;;;;;;;;12.4;50.81641;102513.4;;;;-82
2022/06/14 00:44:19;;;;;;;;;;;;;;;12.33;50.80859;102511.5;;;;-82
2022/06/14 00:49:23;;;;;;;;;;;;;;;12.31;50.86035;102505.3;;;;-81
2022/06/14 00:53:43;;;;;;;5.6;1.4;;;;;;;;;;;;;-80
2022/06/14 00:54:21;;;;;;;;;;;;;;;12.26;51.01367;102508.5;;;;-79
2022/06/14 00:59:21;;;;;;;;;;;;;;;12.22;51.30078;102516.2;;;;-81
2022/06/14 01:04:20;;;;;;;;;;;;;;;12.19;51.31836;102501.5;;;;-81
2022/06/14 01:09:20;;;;;;;;;;;;;;;12.14;51.40137;102492.2;;;;-80
2022/06/14 01:14:22;;;;;;;;;;;;;;;12.14;51.25586;102487.9;;;;-80
2022/06/14 01:19:22;;;;;;;;;;;;;;;12.09;51.35254;102481.7;;;;-81
2022/06/14 01:23:40;;;;;;;4;1.4;;;;;;;;;;;;;-80
2022/06/14 01:24:21;;;;;;;;;;;;;;;12.08;51.16016;102477.6;;;;-80
2022/06/14 01:29:20;;;;;;;;;;;;;;;12.02;51.39941;102477.7;;;;-82
2022/06/14 01:34:20;;;;;;;;;;;;;;;12;51.16211;102477.3;;;;-84
2022/06/14 01:39:20;;;;;;;;;;;;;;;11.95;51.3584;102477;;;;-82
2022/06/14 01:44:24;;;;;;;;;;;;;;;11.91;51.31934;102469.8;;;;-81
2022/06/14 01:53:46;;;;;;;4.4;1.2;;;;;;;;;;;;;-80
2022/06/14 01:54:21;;;;;;;;;;;;;;;11.88;51.25879;102473.1;;;;-82
2022/06/14 01:59:23;;;;;;;;;;;;;;;11.85;51.2002;102466.6;;;;-81
2022/06/14 02:09:30;;;;;;;;;;;;;;;11.78;51.18066;102466.8;;;;-83
2022/06/14 02:14:23;;;;;;;;;;;;;;;11.73;51.24316;102462.2;;;;-83
2022/06/14 02:19:24;;;;;;;;;;;;;;;11.67;51.34668;102456.2;;;;-82
2022/06/14 02:23:45;;;;;;;3.6;1.2;;;;;;;;;;;;;-84
2022/06/14 02:24:23;;;;;;;;;;;;;;;11.63;51.4541;102455.5;;;;-82
2022/06/14 02:29:22;;;;;;;;;;;;;;;11.57;51.40332;102454.7;;;;-81
2022/06/14 02:34:21;;;;;;;;;;;;;;;11.53;51.31934;102454.5;;;;-83
2022/06/14 02:39:19;;;;;;;;;;;;;;;11.49;51.32617;102450.4;;;;-81
2022/06/14 02:44:20;;;;;;;;;;;;;;;11.42;51.47363;102453.1;;;;-82
2022/06/14 02:49:21;;;;;;;;;;;;;;;11.37;51.5127;102449.2;;;;-83
2022/06/14 02:53:48;;;;;;;2.9;1.2;;;;;;;;;;;;;-80
2022/06/14 02:54:20;;;;;;;;;;;;;;;11.33;51.47461;102449;;;;-81
2022/06/14 02:59:22;;;;;;;;;;;;;;;11.31;51.30469;102446.4;;;;-82
2022/06/14 03:04:24;;;;;;;;;;;;;;;11.29;51.45898;102443.3;;;;-81
2022/06/14 03:09:31;;;;;;;;;;;;;;;11.23;51.51855;102441.1;;;;-82
2022/06/14 03:14:23;;;;;;;;;;;;;;;11.19;51.45703;102438.6;;;;-82
2022/06/14 03:19:21;;;;;;;;;;;;;;;11.16;51.60059;102438.5;;;;-82
2022/06/14 03:23:47;;;;;;;4.6;1.1;;;;;;;;;;;;;-82
2022/06/14 03:24:25;;;;;;;;;;;;;;;11.13;51.55078;102435.5;;;;-83
2022/06/14 03:29:23;;;;;;;;;;;;;;;11.13;51.65137;102441.6;;;;-82
2022/06/14 03:34:25;;;;;;;;;;;;;;;11.14;51.73242;102445.2;;;;-82
2022/06/14 03:39:22;;;;;;;;;;;;;;;11.14;51.69824;102442.3;;;;-82
2022/06/14 03:44:21;;;;;;;;;;;;;;;11.16;51.63379;102447.4;;;;-81
2022/06/14 03:49:21;;;;;;;;;;;;;;;11.18;51.73633;102443.5;;;;-81
2022/06/14 03:53:59;;;;;;;3.5;1.5;;;;;;;;;;;;;-82
2022/06/14 03:54:30;;;;;;;;;;;;;;;11.2;51.87305;102444.3;;;;-81
2022/06/14 03:59:25;;;;;;;;;;;;;;;11.24;51.83203;102449.1;;;;-81
2022/06/14 04:04:29;;;;;;;;;;;;;;;11.26;51.94727;102452.8;;;;-81
2022/06/14 04:09:33;;;;;;;;;;;;;;;11.3;51.8623;102451.1;;;;-82
2022/06/14 04:14:25;;;;;;;;;;;;;;;11.32;51.87695;102452.1;;;;-82
2022/06/14 04:19:25;;;;;;;;;;;;;;;11.33;51.9209;102448.2;;;;-82
2022/06/14 04:23:51;;;;;;;3.5;1.6;;;;;;;;;;;;;-82
2022/06/14 04:24:23;;;;;;;;;;;;;;;11.39;51.7832;102450.5;;;;-81
2022/06/14 04:29:22;;;;;;;;;;;;;;;11.41;51.83008;102447.8;;;;-80
2022/06/14 04:34:21;;;;;;;;;;;;;;;11.43;51.81055;102446.5;;;;-81
2022/06/14 04:39:25;;;;;;;;;;;;;;;11.47;51.85059;102449.9;;;;-82
2022/06/14 04:44:30;;;;;;;;;;;;;;;11.54;51.77832;102446.7;;;;-83
2022/06/14 04:49:26;;;;;;;;;;;;;;;11.62;51.64258;102455.7;;;;-81
2022/06/14 04:53:49;;;;;;;6.2;1.4;;;;;;;;;;;;;-84
2022/06/14 04:54:20;;;;;;;;;;;;;;;11.66;51.69238;102461.2;;;;-83
2022/06/14 04:59:22;;;;;;;;;;;;;;;11.69;51.70703;102463.8;;;;-81
2022/06/14 05:04:25;;;;;;;;;;;;;;;11.76;51.64844;102463.6;;;;-84
2022/06/14 05:09:21;;;;;;;;;;;;;;;11.84;51.88086;102467.8;;;;-81
2022/06/14 05:14:25;;;;;;;;;;;;;;;11.95;51.68262;102467.1;;;;-80
2022/06/14 05:19:27;;;;;;;;;;;;;;;12.07;52.44629;102466.4;;;;-81
2022/06/14 05:23:51;;;;;;;5.3;1.8;;;;;;;;;;;;;-83
2022/06/14 05:24:20;;;;;;;;;;;;;;;12.44;52.40039;102465.8;;;;-82
2022/06/14 05:29:22;;;;;;;;;;;;;;;13.09;51.58105;102460;;;;-85
2022/06/14 05:34:29;;;;;;;;;;;;;;;13.92;50.35156;102457.7;;;;-80
2022/06/14 05:39:23;;;;;;;;;;;;;;;14.84;48.75391;102459.1;;;;-82
2022/06/14 05:44:26;;;;;;;;;;;;;;;15.67;47.69336;102452.4;;;;-81
2022/06/14 05:49:24;;;;;;;;;;;;;;;16.36;46.74902;102449.9;;;;-82
2022/06/14 05:53:55;;;;;;;6.7;1.7;;;;;;;;;;;;;-79
2022/06/14 05:54:22;;;;;;;;;;;;;;;17;45.96582;102446.8;;;;-81
2022/06/14 05:59:21;;;;;;;;;;;;;;;17.55;45.27344;102448.1;;;;-85
2022/06/14 06:04:22;;;;;;;;;;;;;;;18.09;44.58984;102453.3;;;;-81
2022/06/14 06:09:26;;;;;;;;;;;;;;;18.62;44.03906;102450;;;;-82
2022/06/14 06:14:22;;;;;;;;;;;;;;;19.14;43.70215;102453.4;;;;-82
2022/06/14 06:19:23;;;;;;;;;;;;;;;19.62;43.35156;102449.7;;;;-82
2022/06/14 06:23:55;;;;;;;3.9;1.9;;;;;;;;;;;;;-82
2022/06/14 06:24:21;;;;;;;;;;;;;;;20.12;42.87305;102456.8;;;;-82
2022/06/14 06:29:22;;;;;;;;;;;;;;;20.57;42.16113;102455.5;;;;-82
2022/06/14 06:34:19;;;;;;;;;;;;;;;21;41.76563;102458.1;;;;-82
2022/06/14 06:39:25;;;;;;;;;;;;;;;21.4;41.52832;102458.1;;;;-83
2022/06/14 06:44:20;;;;;;;;;;;;;;;21.8;41.08398;102461.2;;;;-83
2022/06/14 06:49:22;;;;;;;;;;;;;;;22.12;40.91699;102461.6;;;;-82
2022/06/14 06:53:58;;;;;;;4.2;1.6;;;;;;;;;;;;;-81
2022/06/14 06:54:25;;;;;;;;;;;;;;;22.43;40.73926;102462.4;;;;-82
2022/06/14 06:59:23;;;;;;;;;;;;;;;22.8;40.27832;102463.9;;;;-83
2022/06/14 07:05:02;;;;;;;;;;;;;;;23.2;39.80566;102464.2;;;;-82
2022/06/14 07:09:20;;;;;;;;;;;;;;;23.52;39.4541;102467.3;;;;-82
2022/06/14 07:14:30;;;;;;;;;;;;;;;23.86;38.81445;102467;;;;-83
2022/06/14 07:19:38;;;;;;;;;;;;;;;24.15;38.18164;102465.9;;;;-81
2022/06/14 07:23:59;;;;;;;4.6;1.3;;;;;;;;;;;;;-81
2022/06/14 07:24:21;;;;;;;;;;;;;;;24.4;37.83203;102463.2;;;;-83
2022/06/14 07:29:24;;;;;;;;;;;;;;;24.67;37.39355;102466.7;;;;-82
2022/06/14 07:34:27;;;;;;;;;;;;;;;24.93;36.92773;102469.7;;;;-82
2022/06/14 07:39:26;;;;;;;;;;;;;;;25.21;36.61426;102469.9;;;;-82
2022/06/14 07:44:23;;;;;;;;;;;;;;;25.5;36.24512;102464;;;;-81
2022/06/14 07:49:26;;;;;;;;;;;;;;;25.91;35.70801;102462;;;;-81
2022/06/14 07:54:02;;;;;;;3.7;1.2;;;;;;;;;;;;;-81
2022/06/14 07:54:21;;;;;;;;;;;;;;;26.17;35.26465;102455.2;;;;-82
2022/06/14 07:59:20;;;;;;;;;;;;;;;26.18;35.0791;102460;;;;-80
2022/06/14 08:04:21;;;;;;;;;;;;;;;25.99;35.12207;102460.5;;;;-78
2022/06/14 08:09:20;;;;;;;;;;;;;;;25.85;35.4707;102456.9;;;;-82
2022/06/14 08:14:21;;;;;;;;;;;;;;;25.81;35.375;102461.9;;;;-82
2022/06/14 08:19:23;;;;;;;;;;;;;;;25.81;35.57227;102458;;;;-81
2022/06/14 08:24:12;;;;;;;3.7;1.2;;;;;;;;;;;;;-79
2022/06/14 08:24:25;;;;;;;;;;;;;;;25.85;35.37891;102455.8;;;;-82
2022/06/14 08:29:25;;;;;;;;;;;;;;;25.93;35.19922;102458.4;;;;-79
2022/06/14 08:34:21;;;;;;;;;;;;;;;25.96;35.31738;102452.9;;;;-82
2022/06/14 08:39:21;;;;;;;;;;;;;;;26.04;35.0918;102454.6;;;;-82
2022/06/14 08:44:19;;;;;;;;;;;;;;;26.18;35.17188;102450.5;;;;-83
2022/06/14 08:49:28;;;;;;;;;;;;;;;26.42;34.96973;102453.9;;;;-82
2022/06/14 08:54:22;;;;;;;4.4;1.2;;;;;;;;;;;;;-82
2022/06/14 08:54:46;;;;;;;;;;;;;;;26.56;34.65527;102435;;;;-81
2022/06/14 08:59:29;;;;;;;;;;;;;;;26.82;34.60645;102446.6;;;;-81
2022/06/14 09:04:41;;;;;;;;;;;;;;;27.16;34.1416;102443.2;;;;-80
2022/06/14 09:09:38;;;;;;;;;;;;;;;27.46;33.51172;102441.1;;;;-81
2022/06/14 09:14:29;;;;;;;;;;;;;;;27.75;33.13672;102434.1;;;;-83
2022/06/14 09:19:28;;;;;;;;;;;;;;;27.96;32.93164;102432;;;;-84
2022/06/14 09:24:24;;;;;;;2.8;1.2;;;;;;;;;;;;;-83
2022/06/14 09:24:50;;;;;;;;;;;;;;;28.09;32.47363;102409.3;;;;-82
2022/06/14 09:29:30;;;;;;;;;;;;;;;28.26;32.14746;102425.6;;;;-82
2022/06/14 09:34:32;;;;;;;;;;;;;;;28.3;32.30176;102426.6;;;;-82
2022/06/14 09:39:45;;;;;;;;;;;;;;;28.5;32.35059;102422.3;;;;-83
2022/06/14 09:44:40;;;;;;;;;;;;;;;28.86;32.25977;102414.5;;;;-86
2022/06/14 09:49:34;;;;;;;;;;;;;;;29.33;31.5791;102415.1;;;;-87
2022/06/14 09:54:35;;;;;;;3.2;1.4;;;;;;;;;;;;;-83
2022/06/14 09:55:17;;;;;;;;;;;;;;;29.55;31.00879;102388.7;;;;-85
2022/06/14 09:59:35;;;;;;;;;;;;;;;29.98;30.62695;102410.1;;;;-84
2022/06/14 10:04:30;;;;;;;;;;;;;;;30.37;30.46484;102414.2;;;;-84
2022/06/14 10:09:31;;;;;;;;;;;;;;;30.71;29.34863;102409.8;;;;-84
2022/06/14 10:14:30;;;;;;;;;;;;;;;30.65;28.88477;102406.3;;;;-81
2022/06/14 10:19:31;;;;;;;;;;;;;;;30.42;29.25879;102406.3;;;;-83
2022/06/14 10:24:32;;;;;;;;;;;;;;;30.16;29.57129;102403.4;;;;-84
2022/06/14 10:24:44;;;;;;;2.8;1.1;;;;;;;;;;;;;-84
2022/06/14 10:29:26;;;;;;;;;;;;;;;29.85;29.97266;102396.4;;;;-82
2022/06/14 10:34:24;;;;;;;;;;;;;;;29.53;30.67871;102391.4;;;;-82
2022/06/14 10:39:29;;;;;;;;;;;;;;;29.29;31.18945;102389;;;;-81
2022/06/14 10:44:25;;;;;;;;;;;;;;;29.16;31.61426;102390.8;;;;-82
2022/06/14 10:49:26;;;;;;;;;;;;;;;29.06;31.37305;102383.9;;;;-81
2022/06/14 10:54:24;;;;;;;;;;;;;;;29.02;31.45215;102380.4;;;;-72
2022/06/14 10:54:44;;;;;;;2.5;1.3;;;;;;;;;;;;;-72
2022/06/14 10:59:44;;;;;;;;;;;;;;;29.19;31.40527;102375.2;;;;-76
2022/06/14 11:04:22;;;;;;;;;;;;;;;29.42;31.20996;102367;;;;-79
2022/06/14 11:09:26;;;;;;;;;;;;;;;29.57;30.75098;102363.6;;;;-78
2022/06/14 11:14:23;;;;;;;;;;;;;;;29.53;31.65234;102362.6;;;;-77
2022/06/14 11:19:35;;;;;;;;;;;;;;;29.55;31.77051;102361.3;;;;-77
2022/06/14 11:24:21;;;;;;;;;;;;;;;29.56;32.54395;102365.5;;;;-76
2022/06/14 11:24:34;;;;;;;3.2;1.3;;;;;;;;;;;;;-76
2022/06/14 11:29:21;;;;;;;;;;;;;;;29.5;32.79688;102365.9;;;;-76
2022/06/14 11:34:37;;;;;;;;;;;;;;;29.27;32.01953;102358.5;;;;-78
2022/06/14 11:39:24;;;;;;;;;;;;;;;29;32.11719;102362.3;;;;-76
2022/06/14 11:44:26;;;;;;;;;;;;;;;28.69;32.42285;102358.7;;;;-75
2022/06/14 11:49:24;;;;;;;;;;;;;;;28.32;32.71191;102348.4;;;;-78
2022/06/14 11:54:25;;;;;;;;;;;;;;;28.04;33.04199;102357.1;;;;-75
2022/06/14 11:54:41;;;;;;;3.5;1.4;;;;;;;;;;;;;-75
2022/06/14 11:59:36;;;;;;;;;;;;;;;27.7;33.25;102356;;;;-76
2022/06/14 12:04:24;;;;;;;;;;;;;;;27.35;33.34082;102353.1;;;;-77
2022/06/14 12:09:29;;;;;;;;;;;;;;;27.14;33.59277;102347.8;;;;-78
2022/06/14 12:14:29;;;;;;;;;;;;;;;26.96;33.66113;102348;;;;-77
2022/06/14 12:19:23;;;;;;;;;;;;;;;26.9;34.07617;102346.1;;;;-77
2022/06/14 12:24:21;;;;;;;;;;;;;;;26.94;34.12598;102336.2;;;;-78
2022/06/14 12:29:22;;;;;;;;;;;;;;;27.07;34.34473;102330.2;;;;-75
2022/06/14 12:34:22;;;;;;;;;;;;;;;27.22;34.47363;102324.8;;;;-74
2022/06/14 12:39:22;;;;;;;;;;;;;;;27.37;34.51953;102325.9;;;;-77
2022/06/14 12:44:28;;;;;;;;;;;;;;;27.53;34.74121;102314.7;;;;-75
2022/06/14 12:49:21;;;;;;;;;;;;;;;27.71;34.77832;102316.5;;;;-78
2022/06/14 12:54:21;;;;;;;;;;;;;;;27.93;35.05176;102313.7;;;;-76
2022/06/14 12:54:46;;;;;;;2.6;1.4;;;;;;;;;;;;;-75
2022/06/14 12:59:26;;;;;;;;;;;;;;;28.26;34.33008;102307;;;;-77
2022/06/14 13:04:19;;;;;;;;;;;;;;;28.62;33.39941;102304.9;;;;-76
2022/06/14 13:09:24;;;;;;;;;;;;;;;29.01;32.39941;102302.9;;;;-77
2022/06/14 13:14:21;;;;;;;;;;;;;;;29.38;31.99219;102307.2;;;;-77
2022/06/14 13:19:22;;;;;;;;;;;;;;;29.63;31.90527;102304.5;;;;-76
2022/06/14 13:24:24;;;;;;;;;;;;;;;29.67;32.80957;102303;;;;-76
2022/06/14 13:24:55;;;;;;;3.7;1.6;;;;;;;;;;;;;-77
2022/06/14 13:29:32;;;;;;;;;;;;;;;29.54;32.44824;102306.6;;;;-76
2022/06/14 13:34:28;;;;;;;;;;;;;;;29.35;32.59863;102306.4;;;;-76
2022/06/14 13:39:21;;;;;;;;;;;;;;;29.12;32.54785;102300.3;;;;-76
2022/06/14 13:44:23;;;;;;;;;;;;;;;28.9;32.87012;102293.6;;;;-77
2022/06/14 13:49:20;;;;;;;;;;;;;;;28.7;32.54102;102288.3;;;;-76
2022/06/14 13:54:20;;;;;;;;;;;;;;;28.52;32.60938;102281;;;;-76
2022/06/14 13:54:57;;;;;;;4.1;1.6;;;;;;;;;;;;;-77
2022/06/14 13:59:20;;;;;;;;;;;;;;;28.36;32.85449;102283.8;;;;-78
2022/06/14 14:04:23;;;;;;;;;;;;;;;28.24;32.89258;102280;;;;-75
2022/06/14 14:09:23;;;;;;;;;;;;;;;28.11;32.87207;102278.4;;;;-77
2022/06/14 14:14:24;;;;;;;;;;;;;;;28;32.99121;102273.6;;;;-77
2022/06/14 14:19:25;;;;;;;;;;;;;;;27.9;33.07813;102269.8;;;;-76
2022/06/14 14:24:31;;;;;;;;;;;;;;;27.82;33.18945;102263.4;;;;-75
2022/06/14 14:24:57;;;;;;;3.9;1.7;;;;;;;;;;;;;-77
2022/06/14 14:29:24;;;;;;;;;;;;;;;27.76;33.33594;102254.7;;;;-76
2022/06/14 14:34:23;;;;;;;;;;;;;;;27.74;33.42773;102255;;;;-76
2022/06/14 14:39:24;;;;;;;;;;;;;;;27.75;33.4873;102247;;;;-75
2022/06/14 14:44:23;;;;;;;;;;;;;;;27.77;33.55859;102240.4;;;;-76
2022/06/14 14:49:21;;;;;;;;;;;;;;;27.79;33.5127;102236.6;;;;-77
2022/06/14 14:54:27;;;;;;;;;;;;;;;27.79;33.60645;102231.5;;;;-77
2022/06/14 14:55:05;;;;;;;3.6;1.7;;;;;;;;;;;;;-76
2022/06/14 14:59:24;;;;;;;;;;;;;;;27.8;33.50293;102224.8;;;;-76
2022/06/14 15:09:20;;;;;;;;;;;;;;;28.06;33.11328;102222.4;;;;-78
2022/06/14 15:14:23;;;;;;;;;;;;;;;28.21;33.34668;102221.7;;;;-76
2022/06/14 15:24:20;;;;;;;;;;;;;;;28.1;32.98828;102219.8;;;;-77
2022/06/14 15:25:05;;;;;;;3.5;1.6;;;;;;;;;;;;;-76
2022/06/14 15:29:29;;;;;;;;;;;;;;;27.92;33.20801;102214.2;;;;-78
2022/06/14 15:34:19;;;;;;;;;;;;;;;27.74;33.2998;102215.5;;;;-76
2022/06/14 15:39:23;;;;;;;;;;;;;;;27.55;33.33203;102215.4;;;;-75
2022/06/14 15:44:29;;;;;;;;;;;;;;;27.39;33.87988;102211.4;;;;-83
2022/06/14 15:49:24;;;;;;;;;;;;;;;27.26;34.18457;102209.7;;;;-83
2022/06/14 15:54:31;;;;;;;;;;;;;;;27.19;34.3418;102203.4;;;;-83
2022/06/14 15:55:17;;;;;;;4.7;1.8;;;;;;;;;;;;;-83
2022/06/14 15:59:28;;;;;;;;;;;;;;;27.25;34.49805;102201.6;;;;-83
2022/06/14 16:04:25;;;;;;;;;;;;;;;27.4;33.8457;102196.8;;;;-84
2022/06/14 16:09:29;;;;;;;;;;;;;;;27.46;33.87305;102194;;;;-85
2022/06/14 16:14:23;;;;;;;;;;;;;;;27.5;34.04004;102187.8;;;;-81
2022/06/14 16:19:31;;;;;;;;;;;;;;;27.51;33.7959;102179.6;;;;-84
2022/06/14 16:24:21;;;;;;;;;;;;;;;27.56;33.82324;102172.8;;;;-85
2022/06/14 16:25:16;;;;;;;3.9;1.5;;;;;;;;;;;;;-86
2022/06/14 16:29:23;;;;;;;;;;;;;;;27.7;33.36719;102172;;;;-85
2022/06/14 16:34:28;;;;;;;;;;;;;;;27.78;33.22168;102170.6;;;;-83
2022/06/14 16:39:29;;;;;;;;;;;;;;;27.83;33.44629;102164.4;;;;-83
2022/06/14 16:44:25;;;;;;;;;;;;;;;27.86;33.33203;102162.3;;;;-84
2022/06/14 16:49:24;;;;;;;;;;;;;;;27.84;33.24902;102162.4;;;;-82
2022/06/14 16:54:25;;;;;;;;;;;;;;;27.74;33.5332;102161;;;;-82
2022/06/14 16:55:20;;;;;;;3.8;1.7;;;;;;;;;;;;;-83
2022/06/14 16:59:30;;;;;;;;;;;;;;;27.62;33.69922;102157.3;;;;-83
2022/06/14 17:00:09;;;;;;;;;;;;;;;27.97;33.52734;102156.2;;;;-83
2022/06/14 17:04:56;;;;;;;;;;;;;;;27.5;33.67871;102153.3;;;;-84
2022/06/14 17:10:04;;;;;;;;;;;;;;;27.4;34.40527;102151.8;;;;-83
2022/06/14 17:14:50;;;;;;;;;;;;;;;27.24;34.42773;102154.8;;;;-85
2022/06/14 17:19:52;;;;;;;;;;;;;;;27.09;34.84668;102148.5;;;;-85
2022/06/14 17:24:56;;;;;;;;;;;;;;;26.92;35.02148;102138.7;;;;-85
2022/06/14 17:30:08;;;;;;;3.5;1.6;;;;;;;;;;;;;-83
2022/06/14 17:34:57;;;;;;;;;;;;;;;26.58;35.55273;102139.8;;;;-84
2022/06/14 17:40:35;;;;;;;;;;;;;;;26.69;35.375;102134.7;;;;-82
2022/06/14 17:43:31;;;;;;;;;;;;;;;;;;;;;
2022/06/14 17:48:19;;;;;;;;;;;;;;;26.15;35.9834;102143.2;;;;-82
2022/06/14 17:53:24;;;;;;;;;;;;;;;25.99;36.1084;102139.9;;;;-83
2022/06/14 17:55:31;;;;;;;3.2;1.7;;;;;;;;;;;;;-84
2022/06/14 17:58:16;;;;;;;;;;;;;;;25.83;36.31641;102145.3;;;;-82
2022/06/14 18:03:11;;;;;;;;;;;;;;;25.68;36.50195;102149.5;;;;-82
2022/06/14 18:08:17;;;;;;;;;;;;;;;25.51;36.58105;102146.3;;;;-82
2022/06/14 18:18:25;;;;;;;;;;;;;;;25.19;36.91406;102141.8;;;;-82
2022/06/14 18:23:13;;;;;;;;;;;;;;;25.04;37.06445;102142.4;;;;-81
2022/06/14 18:25:38;;;;;;;3.1;1.6;;;;;;;;;;;;;-82
2022/06/14 18:28:31;;;;;;;;;;;;;;;24.89;37.17871;102141.5;;;;-82
2022/06/14 18:38:25;;;;;;;;;;;;;;;24.53;37.3584;102123.4;;;;-84
2022/06/14 18:43:36;;;;;;;;;;;;;;;24.47;37.50293;102130.1;;;;-84
2022/06/14 18:48:28;;;;;;;;;;;;;;;24.34;37.44629;102136.5;;;;-83
2022/06/14 18:53:24;;;;;;;;;;;;;;;24.2;37.61914;102141.6;;;;-82
2022/06/14 18:58:17;;;;;;;;;;;;;;;24.01;37.5918;102138;;;;-84
2022/06/14 19:03:36;;;;;;;;;;;;;;;23.78;38.02344;102127.8;;;;-81
2022/06/14 19:08:17;;;;;;;;;;;;;;;23.5;38.06738;102132.4;;;;-82
2022/06/14 19:13:17;;;;;;;;;;;;;;;23.21;38.27344;102133.7;;;;-84
2022/06/14 19:23:24;;;;;;;;;;;;;;;22.62;38.63867;102138.1;;;;-81
2022/06/14 19:25:45;;;;;;;4.3;1.7;;;;;;;;;;;;;-80
2022/06/14 19:28:17;;;;;;;;;;;;;;;22.3;38.97852;102142.8;;;;-81
2022/06/14 19:33:20;;;;;;;;;;;;;;;22.01;39.02246;102151.5;;;;-81
2022/06/14 19:38:14;;;;;;;;;;;;;;;21.73;39.19336;102161.2;;;;-82
2022/06/14 19:43:13;;;;;;;;;;;;;;;21.45;39.60449;102161.4;;;;-80
2022/06/14 19:48:14;;;;;;;;;;;;;;;21.16;39.77441;102162.6;;;;-82
2022/06/14 19:53:23;;;;;;;;;;;;;;;20.87;40.13867;102156.8;;;;-81
2022/06/14 19:55:42;;;;;;;4;1.7;;;;;;;;;;;;;-81
2022/06/14 19:58:26;;;;;;;;;;;;;;;20.59;40.58301;102157.7;;;;-81
2022/06/14 20:03:14;;;;;;;;;;;;;;;20.3;41.01367;102157.8;;;;-82
2022/06/14 20:08:19;;;;;;;;;;;;;;;20.03;41.4248;102165.9;;;;-82
2022/06/14 20:13:21;;;;;;;;;;;;;;;19.8;41.90527;102170.3;;;;-83
2022/06/14 20:18:27;;;;;;;;;;;;;;;19.55;42.28223;102170.6;;;;-81
2022/06/14 20:23:14;;;;;;;;;;;;;;;19.33;42.77441;102165.7;;;;-83
2022/06/14 20:26:48;;;;;;;;;;;;;;;19.58;42.18066;102161.4;;;;-82
2022/06/14 20:31:01;;;;;;;;;;;;;;;19.03;43.17871;102168.2;;;;-81
2022/06/14 20:35:45;;;;;;;;;;;;;;;18.82;43.5459;102175.4;;;;-82
2022/06/14 20:40:46;;;;;;;;;;;;;;;18.63;43.85742;102171.1;;;;-81
2022/06/14 20:45:46;;;;;;;;;;;;;;;18.45;44.15918;102155.3;;;;-81
2022/06/14 20:50:48;;;;;;;;;;;;;;;18.26;44.50488;102155.2;;;;-82
2022/06/14 20:55:46;;;;;;;4.2;2.2;;;;;;;;;;;;;-82
2022/06/14 20:56:09;;;;;;;;;;;;;;;18;44.84277;102143.5;;;;-81
2022/06/14 21:00:46;;;;;;;;;;;;;;;17.94;45.01855;102158.5;;;;-80
2022/06/14 21:05:51;;;;;;;;;;;;;;;17.79;45.34375;102154.6;;;;-81
2022/06/14 21:15:54;;;;;;;;;;;;;;;17.53;45.83984;102156.8;;;;-81
2022/06/14 21:20:50;;;;;;;;;;;;;;;17.39;45.9502;102155.5;;;;-82
2022/06/14 21:25:47;;;;;;;;;;;;;;;17.26;46.11816;102148.9;;;;-83
2022/06/14 21:26:09;;;;;;;5.9;2.3;;;;;;;;;;;;;-83
2022/06/14 21:30:49;;;;;;;;;;;;;;;17.13;46.40039;102153.2;;;;-81
2022/06/14 21:35:59;;;;;;;;;;;;;;;17.05;46.50488;102150.6;;;;-83
2022/06/14 21:40:46;;;;;;;;;;;;;;;16.94;46.75293;102151;;;;-81
2022/06/14 21:45:52;;;;;;;;;;;;;;;16.85;46.83496;102152.9;;;;-81
2022/06/14 21:50:52;;;;;;;;;;;;;;;16.75;47.27832;102151.5;;;;-84
2022/06/14 21:55:48;;;;;;;;;;;;;;;16.64;47.20996;102152.3;;;;-81
2022/06/14 21:56:03;;;;;;;6.4;2.2;;;;;;;;;;;;;-81
2022/06/14 22:00:50;;;;;;;;;;;;;;;16.58;47.38477;102154.3;;;;-83
2022/06/14 22:05:46;;;;;;;;;;;;;;;16.47;47.36133;102156.3;;;;-81
2022/06/14 22:10:55;;;;;;;;;;;;;;;16.39;47.6123;102147.9;;;;-82
2022/06/14 22:15:49;;;;;;;;;;;;;;;16.32;47.76465;102152.4;;;;-84
2022/06/14 22:20:57;;;;;;;;;;;;;;;16.25;47.9502;102158;;;;-82
2022/06/14 22:25:46;;;;;;;;;;;;;;;16.2;48.01172;102148.6;;;;-80
2022/06/14 22:25:59;;;;;;;5.5;2.5;;;;;;;;;;;;;-80
2022/06/14 22:34:21;;;;;;;;;;;;;;;16.24;47.83398;102142.1;;;;-80
2022/06/14 22:37:22;;;;;;;;;;;;;;;15.99;48.27148;102149.5;;;;-81
2022/06/14 22:42:32;;;;;;;;;;;;;;;15.91;48.20605;102148.9;;;;-81
2022/06/14 22:47:27;;;;;;;;;;;;;;;15.85;48.58398;102153.7;;;;-79
2022/06/14 22:52:29;;;;;;;;;;;;;;;15.77;48.36035;102145.6;;;;-80
2022/06/14 22:55:52;;;;;;;5.2;2.7;;;;;;;;;;;;;-82
2022/06/14 22:57:29;;;;;;;;;;;;;;;15.68;48.59961;102147.2;;;;-79
2022/06/14 23:52:27;;;;;;;;;;;;;;;14.92;49.62109;102119.8;;;;-86
2022/06/14 23:56:09;;;;;;;4.6;2.4;;;;;;;;;;;;;-85
2022/06/14 23:57:29;;;;;;;;;;;;;;;14.87;49.69336;102116;;;;-83
